createdAt,value
2019-04-03T00:00:21.081Z,71.50
2019-04-03T00:02:52.324Z,71.90
2019-04-03T00:05:23.527Z,71.30
2019-04-03T00:07:54.894Z,71.20
2019-04-03T00:10:26.122Z,71.80
2019-04-03T00:12:57.187Z,72.50
2019-04-03T00:15:28.295Z,72.30
2019-04-03T00:17:59.482Z,72.50
2019-04-03T00:20:30.625Z,72.40
2019-04-03T00:23:01.887Z,73.10
2019-04-03T00:25:32.995Z,73.00
2019-04-03T00:28:04.408Z,72.60
2019-04-03T00:30:35.615Z,73.00
2019-04-03T00:33:06.894Z,73.60
2019-04-03T00:35:38.474Z,73.60
2019-04-03T00:38:09.748Z,73.20
2019-04-03T00:40:40.978Z,73.20
2019-04-03T00:43:12.135Z,73.60
2019-04-03T00:45:43.409Z,74.00
2019-04-03T00:48:14.501Z,74.30
2019-04-03T00:50:45.567Z,74.60
2019-04-03T00:53:16.738Z,73.90
2019-04-03T00:55:47.838Z,74.40
2019-04-03T00:58:37.823Z,74.60
2019-04-03T01:01:10.550Z,74.30
2019-04-03T01:03:42.060Z,74.90
2019-04-03T01:06:13.632Z,74.90
2019-04-03T01:08:44.778Z,75.40
2019-04-03T01:11:15.926Z,76.30
2019-04-03T01:13:47.150Z,76.50
2019-04-03T01:16:18.397Z,76.90
2019-04-03T01:18:49.564Z,77.40
2019-04-03T01:21:20.722Z,77.30
2019-04-03T01:23:51.722Z,77.10
2019-04-03T01:26:22.918Z,77.30
2019-04-03T01:28:54.032Z,77.60
2019-04-03T01:31:25.197Z,78.30
2019-04-03T01:33:56.433Z,78.90
2019-04-03T01:38:57.935Z,79.30
2019-04-03T01:41:29.151Z,78.80
2019-04-03T01:44:00.306Z,79.30
2019-04-03T01:46:31.436Z,79.00
2019-04-03T01:49:02.581Z,79.90
2019-04-03T01:51:33.904Z,78.80
2019-04-03T01:54:05.071Z,79.60
2019-04-03T01:56:36.378Z,78.70
2019-04-03T01:59:07.575Z,78.90
2019-04-03T02:01:39.123Z,79.30
2019-04-03T02:04:12.116Z,79.70
2019-04-03T02:06:43.831Z,79.70
2019-04-03T02:09:16.301Z,79.20
2019-04-03T02:11:49.374Z,79.30
2019-04-03T02:14:22.129Z,79.90
2019-04-03T02:16:54.192Z,80.40
2019-04-03T02:19:26.573Z,80.40
2019-04-03T02:21:59.155Z,80.30
2019-04-03T02:24:31.991Z,81.00
2019-04-03T02:27:03.522Z,81.50
2019-04-03T02:29:34.826Z,81.60
2019-04-03T02:32:06.185Z,82.40
2019-04-03T02:34:37.479Z,82.40
2019-04-03T02:37:08.746Z,82.20
2019-04-03T02:39:40.102Z,82.40
2019-04-03T02:42:11.364Z,82.50
2019-04-03T02:44:43.110Z,82.50
2019-04-03T02:47:15.207Z,83.50
2019-04-03T02:49:46.432Z,84.40
2019-04-03T02:52:17.872Z,83.90
2019-04-03T02:54:49.205Z,85.20
2019-04-03T02:57:20.387Z,85.30
2019-04-03T02:59:51.549Z,85.50
2019-04-03T03:02:22.680Z,86.20
2019-04-03T03:04:55.092Z,85.60
2019-04-03T03:07:26.880Z,86.40
2019-04-03T03:09:58.581Z,85.40
2019-04-03T03:12:30.287Z,85.70
2019-04-03T03:15:02.609Z,87.20
2019-04-03T03:17:35.042Z,87.20
2019-04-03T03:20:07.940Z,87.30
2019-04-03T03:22:40.422Z,87.90
2019-04-03T03:25:11.678Z,89.00
2019-04-03T03:27:43.380Z,88.70
2019-04-03T03:30:34.306Z,89.40
2019-04-03T03:32:48.446Z,90.00
2019-04-03T03:35:28.609Z,90.70
2019-04-03T03:37:53.042Z,91.20
2019-04-03T03:40:24.273Z,91.70
2019-04-03T03:42:56.246Z,91.80
2019-04-03T03:45:28.906Z,92.60
2019-04-03T03:48:00.686Z,93.20
2019-04-03T03:50:36.920Z,93.40
2019-04-03T03:53:28.466Z,92.20
2019-04-03T03:55:59.837Z,92.80
2019-04-03T03:58:31.734Z,92.40
2019-04-03T04:01:03.036Z,92.60
2019-04-03T04:03:34.189Z,93.00
2019-04-03T04:06:05.945Z,92.60
2019-04-03T04:08:57.558Z,92.40
2019-04-03T04:11:31.069Z,92.20
2019-04-03T04:16:35.897Z,92.80
2019-04-03T04:19:06.674Z,92.20
2019-04-03T04:21:42.667Z,93.00
2019-04-03T04:24:12.088Z,92.50
2019-04-03T04:29:22.006Z,92.90
2019-04-03T04:31:55.347Z,93.80
2019-04-03T04:37:03.271Z,93.70
2019-04-03T04:39:35.058Z,93.40
2019-04-03T04:42:06.243Z,92.80
2019-04-03T04:44:41.193Z,93.00
2019-04-03T04:47:14.531Z,93.00
2019-04-03T04:49:46.429Z,93.00
2019-04-03T04:52:17.686Z,92.20
2019-04-03T04:54:49.063Z,91.90
2019-04-03T04:57:20.759Z,91.50
2019-04-03T04:59:52.087Z,91.90
2019-04-03T05:02:23.555Z,91.70
2019-04-03T05:04:55.893Z,91.90
2019-04-03T05:09:58.370Z,91.30
2019-04-03T05:12:29.847Z,91.50
2019-04-03T05:17:31.787Z,91.40
2019-04-03T05:20:03.156Z,90.80
2019-04-03T05:22:34.891Z,90.10
2019-04-03T05:27:37.563Z,90.20
2019-04-03T05:30:29.041Z,88.80
2019-04-03T05:35:30.725Z,87.80
2019-04-03T05:38:01.797Z,88.80
2019-04-03T05:40:32.942Z,86.70
2019-04-03T05:43:04.473Z,85.80
2019-04-03T05:45:35.847Z,86.10
2019-04-03T05:48:12.590Z,85.70
2019-04-03T05:50:40.210Z,85.10
2019-04-03T05:53:11.806Z,83.60
2019-04-03T05:55:42.984Z,84.60
2019-04-03T05:58:16.469Z,84.30
2019-04-03T06:00:47.241Z,84.50
2019-04-03T06:03:18.346Z,82.20
2019-04-03T06:05:49.734Z,81.60
2019-04-03T06:08:20.845Z,82.50
2019-04-03T06:10:51.998Z,81.40
2019-04-03T06:13:23.177Z,81.60
2019-04-03T06:15:54.370Z,82.90
2019-04-03T06:18:26.826Z,80.80
2019-04-03T06:20:58.306Z,80.50
2019-04-03T06:23:29.533Z,82.20
2019-04-03T06:26:01.776Z,79.40
2019-04-03T06:28:33.586Z,79.90
2019-04-03T06:31:04.985Z,78.20
2019-04-03T06:33:37.519Z,76.60
2019-04-03T06:36:08.791Z,74.20
2019-04-03T06:38:39.901Z,73.00
2019-04-03T06:41:10.959Z,73.60
2019-04-03T06:43:41.922Z,71.70
2019-04-03T06:46:12.966Z,70.80
2019-04-03T06:48:43.904Z,70.70
2019-04-03T06:51:16.530Z,70.50
2019-04-03T06:53:48.124Z,70.00
2019-04-03T06:56:19.280Z,69.80
2019-04-03T06:58:50.258Z,68.60
2019-04-03T07:01:21.945Z,67.20
2019-04-03T07:03:52.986Z,68.00
2019-04-03T07:06:24.244Z,68.00
2019-04-03T07:08:55.419Z,67.60
2019-04-03T07:11:26.647Z,65.90
2019-04-03T07:13:57.910Z,66.40
2019-04-03T07:16:29.219Z,65.50
2019-04-03T07:19:00.361Z,65.00
2019-04-03T07:21:31.814Z,64.10
2019-04-03T07:24:03.337Z,63.20
2019-04-03T07:26:35.689Z,66.50
2019-04-03T07:31:38.081Z,64.80
2019-04-03T07:34:09.365Z,61.90
2019-04-03T07:36:41.477Z,60.90
2019-04-03T07:39:13.778Z,58.70
2019-04-03T07:41:45.184Z,59.70
2019-04-03T07:46:46.478Z,59.30
2019-04-03T07:49:17.452Z,58.70
2019-04-03T07:51:48.684Z,59.30
2019-04-03T07:54:20.172Z,57.80
2019-04-03T07:56:52.563Z,58.30
2019-04-03T07:59:23.682Z,57.80
2019-04-03T08:01:55.158Z,57.90
2019-04-03T08:04:27.046Z,59.60
2019-04-03T08:06:58.272Z,57.00
2019-04-03T08:09:32.692Z,57.60
2019-04-03T08:12:04.567Z,56.90
2019-04-03T08:14:36.734Z,54.70
2019-04-03T08:17:07.871Z,53.30
2019-04-03T08:22:09.391Z,52.60
2019-04-03T08:24:41.498Z,52.60
2019-04-03T08:27:12.670Z,51.80
2019-04-03T08:29:43.767Z,51.60
2019-04-03T08:32:16.186Z,51.60
2019-04-03T08:34:48.769Z,51.60
2019-04-03T08:37:29.718Z,50.00
2019-04-03T08:39:53.188Z,51.80
2019-04-03T08:42:27.500Z,51.50
2019-04-03T08:44:58.357Z,52.40
2019-04-03T08:47:30.091Z,53.50
2019-04-03T08:50:02.094Z,50.30
2019-04-03T08:52:34.775Z,50.90
2019-04-03T08:55:08.122Z,51.80
2019-04-03T08:57:39.756Z,51.90
2019-04-03T09:00:12.345Z,50.60
2019-04-03T09:02:44.554Z,49.70
2019-04-03T09:05:18.992Z,50.10
2019-04-03T09:07:49.629Z,50.20
2019-04-03T09:10:21.653Z,48.90
2019-04-03T09:12:53.351Z,48.90
2019-04-03T09:17:55.502Z,48.70
2019-04-03T09:20:26.712Z,48.40
2019-04-03T09:22:59.049Z,47.70
2019-04-03T09:25:31.582Z,46.70
2019-04-03T09:28:05.229Z,47.30
2019-04-03T09:30:36.322Z,47.60
2019-04-03T09:33:07.726Z,46.80
2019-04-03T09:35:39.037Z,46.20
2019-04-03T09:40:41.622Z,46.90
2019-04-03T09:43:12.812Z,47.60
2019-04-03T09:45:44.133Z,47.00
2019-04-03T09:50:46.907Z,47.00
2019-04-03T09:53:19.691Z,47.10
2019-04-03T09:55:51.475Z,48.90
2019-04-03T09:58:22.640Z,48.20
2019-04-03T10:00:53.963Z,48.90
2019-04-03T10:03:25.006Z,47.10
2019-04-03T10:05:59.376Z,48.40
2019-04-03T10:08:29.938Z,49.10
2019-04-03T10:11:01.406Z,48.60
2019-04-03T10:13:33.174Z,48.70
2019-04-03T10:16:04.403Z,50.10
2019-04-03T10:18:35.677Z,48.50
2019-04-03T10:23:37.735Z,46.70
2019-04-03T10:26:09.647Z,46.90
2019-04-03T10:28:42.517Z,47.30
2019-04-03T10:31:13.776Z,47.20
2019-04-03T10:33:46.013Z,46.00
2019-04-03T10:36:18.628Z,46.70
2019-04-03T10:38:50.105Z,45.50
2019-04-03T10:41:22.957Z,45.20
2019-04-03T10:43:54.707Z,45.30
2019-04-03T10:46:26.486Z,44.10
2019-04-03T10:49:00.471Z,43.90
2019-04-03T10:51:31.887Z,45.70
2019-04-03T10:56:36.029Z,43.20
2019-04-03T10:59:11.507Z,41.90
2019-04-03T11:01:41.201Z,40.50
2019-04-03T11:04:13.175Z,39.80
2019-04-03T11:07:03.776Z,40.20
2019-04-03T11:12:09.446Z,41.80
2019-04-03T11:14:40.134Z,40.90
2019-04-03T11:17:12.140Z,41.50
2019-04-03T11:19:44.356Z,41.10
2019-04-03T11:22:16.787Z,42.50
2019-04-03T11:24:49.762Z,42.10
2019-04-03T11:27:39.955Z,43.10
2019-04-03T11:29:57.179Z,43.30
2019-04-03T11:32:28.930Z,42.90
2019-04-03T11:35:00.692Z,42.50
2019-04-03T11:40:06.474Z,44.20
2019-04-03T11:42:38.198Z,46.30
2019-04-03T11:45:10.717Z,48.50
2019-04-03T11:47:44.867Z,48.60
2019-04-03T11:50:18.156Z,48.50
2019-04-03T11:52:51.451Z,48.60
2019-04-03T11:55:22.793Z,50.40
2019-04-03T12:00:28.957Z,48.90
2019-04-03T12:03:00.198Z,46.10
2019-04-03T12:05:31.870Z,45.10
2019-04-03T12:10:35.159Z,47.30
2019-04-03T12:13:07.059Z,48.40
2019-04-03T12:15:38.270Z,49.60
2019-04-03T12:18:09.571Z,48.20
2019-04-03T12:20:43.735Z,47.70
2019-04-03T12:23:13.532Z,46.60
2019-04-03T12:25:44.812Z,46.50
2019-04-03T12:28:18.012Z,46.90
2019-04-03T12:30:49.702Z,43.70
2019-04-03T12:33:21.751Z,43.20
2019-04-03T12:35:53.054Z,43.70
2019-04-03T12:38:24.286Z,42.70
2019-04-03T12:40:55.539Z,42.50
2019-04-03T12:43:27.639Z,42.60
2019-04-03T12:46:01.952Z,43.60
2019-04-03T12:51:02.290Z,44.60
2019-04-03T12:53:34.038Z,43.90
2019-04-03T12:56:05.174Z,45.90
2019-04-03T12:58:37.455Z,44.30
2019-04-03T13:01:11.318Z,44.90
2019-04-03T13:03:41.909Z,44.70
2019-04-03T13:13:46.081Z,44.60
2019-04-03T13:16:17.329Z,45.30
2019-04-03T13:18:49.517Z,45.10
2019-04-03T13:23:51.012Z,42.40
2019-04-03T13:26:24.189Z,41.20
2019-04-03T13:28:55.504Z,41.10
2019-04-03T13:31:26.622Z,41.80
2019-04-03T13:36:29.222Z,41.40
2019-04-03T13:39:01.351Z,41.50
2019-04-03T13:41:34.938Z,40.20
2019-04-03T13:44:06.975Z,40.00
2019-04-03T13:46:38.899Z,40.70
2019-04-03T13:51:41.818Z,45.00
2019-04-03T13:54:13.689Z,46.10
2019-04-03T13:56:45.699Z,46.60
2019-04-03T14:01:47.043Z,43.90
2019-04-03T14:04:20.388Z,42.10
2019-04-03T14:06:51.054Z,39.70
2019-04-03T14:11:53.565Z,36.60
2019-04-03T14:14:25.762Z,36.60
2019-04-03T14:16:57.489Z,36.30
2019-04-03T14:19:41.779Z,37.30
2019-04-03T14:22:02.880Z,38.00
2019-04-03T14:24:41.393Z,37.70
2019-04-03T14:27:20.770Z,38.10
2019-04-03T14:29:41.734Z,40.50
2019-04-03T14:32:14.575Z,38.00
2019-04-03T14:34:47.906Z,37.70
2019-04-03T14:37:24.489Z,36.40
2019-04-03T14:39:53.465Z,38.00
2019-04-03T14:42:26.427Z,37.50
2019-04-03T14:44:58.410Z,38.00
2019-04-03T14:47:30.994Z,37.20
2019-04-03T14:50:05.265Z,39.30
2019-04-03T14:52:37.275Z,39.00
2019-04-03T14:55:18.189Z,38.40
2019-04-03T14:57:43.594Z,40.70
2019-04-03T15:00:26.843Z,40.60
2019-04-03T15:02:49.222Z,39.70
2019-04-03T15:05:20.974Z,39.20
2019-04-03T15:07:53.007Z,39.60
2019-04-03T15:10:24.079Z,39.80
2019-04-03T15:12:55.826Z,40.90
2019-04-03T15:18:00.101Z,43.30
2019-04-03T15:20:33.443Z,41.70
2019-04-03T15:23:05.588Z,42.50
2019-04-03T15:25:38.451Z,43.00
2019-04-03T15:28:10.358Z,42.80
2019-04-03T15:30:43.553Z,43.10
2019-04-03T15:33:15.013Z,42.40
2019-04-03T15:35:46.066Z,43.00
2019-04-03T15:38:18.835Z,42.80
2019-04-03T15:45:51.584Z,44.40
2019-04-03T15:50:54.425Z,43.80
2019-04-03T15:53:25.819Z,45.10
2019-04-03T15:55:57.011Z,45.50
2019-04-03T16:00:58.902Z,45.30
2019-04-03T16:03:30.548Z,46.00
2019-04-03T16:06:03.949Z,45.80
2019-04-03T16:11:05.962Z,48.50
2019-04-03T16:13:37.004Z,50.00
2019-04-03T16:16:08.267Z,49.90
2019-04-03T16:18:40.885Z,50.00
2019-04-03T16:21:12.101Z,50.10
2019-04-03T16:23:47.103Z,50.70
2019-04-03T16:26:19.099Z,50.50
2019-04-03T16:28:50.209Z,51.20
2019-04-03T16:31:22.387Z,51.30
2019-04-03T16:33:53.546Z,51.20
2019-04-03T16:36:24.553Z,51.30
2019-04-03T16:38:56.135Z,51.20
2019-04-03T16:41:29.193Z,52.30
2019-04-03T16:44:00.385Z,52.90
2019-04-03T16:46:31.672Z,52.80
2019-04-03T16:49:03.453Z,52.80
2019-04-03T16:54:10.355Z,53.20
2019-04-03T16:56:40.257Z,53.60
2019-04-03T16:59:11.737Z,53.50
2019-04-03T17:01:45.102Z,54.00
2019-04-03T17:04:25.531Z,53.70
2019-04-03T17:06:49.450Z,53.70
2019-04-03T17:09:20.612Z,53.80
2019-04-03T17:16:55.113Z,54.70
2019-04-03T17:19:26.202Z,54.60
2019-04-03T17:21:57.410Z,54.80
2019-04-03T17:24:40.597Z,54.70
2019-04-03T17:27:02.130Z,54.70
2019-04-03T17:29:33.571Z,55.00
2019-04-03T17:32:07.982Z,55.20
2019-04-03T17:34:41.945Z,55.80
2019-04-03T17:37:12.381Z,56.40
2019-04-03T17:39:43.576Z,57.40
2019-04-03T17:42:15.150Z,58.40
2019-04-03T17:44:46.278Z,58.40
2019-04-03T17:47:19.280Z,58.20
2019-04-03T17:49:50.550Z,58.40
2019-04-03T17:52:21.858Z,58.60
2019-04-03T17:54:53.306Z,58.50
2019-04-03T17:59:54.706Z,58.20
2019-04-03T18:02:25.725Z,57.80
2019-04-03T18:04:56.802Z,57.90
2019-04-03T18:07:28.472Z,58.50
2019-04-03T18:10:00.075Z,58.80
2019-04-03T18:12:31.238Z,58.90
2019-04-03T18:15:02.364Z,59.00
2019-04-03T18:17:33.910Z,59.10
2019-04-03T18:20:06.225Z,59.10
2019-04-03T18:22:37.269Z,59.00
2019-04-03T18:25:08.816Z,59.20
2019-04-03T18:30:11.890Z,59.50
2019-04-03T18:32:45.966Z,59.60
2019-04-03T18:35:17.677Z,59.50
2019-04-03T18:40:19.938Z,59.80
2019-04-03T18:42:51.234Z,59.80
2019-04-03T18:45:25.551Z,60.20
2019-04-03T18:47:55.987Z,60.20
2019-04-03T18:50:27.567Z,58.80
2019-04-03T18:52:59.115Z,59.90
2019-04-03T18:55:30.887Z,59.60
2019-04-03T18:58:02.127Z,59.90
2019-04-03T19:00:33.322Z,59.70
2019-04-03T19:03:05.977Z,59.80
2019-04-03T19:05:37.473Z,59.90
2019-04-03T19:08:13.342Z,59.80
2019-04-03T19:10:41.486Z,59.70
2019-04-03T19:13:13.946Z,59.80
2019-04-03T19:15:46.822Z,59.90
2019-04-03T19:18:19.764Z,59.90
2019-04-03T19:20:50.864Z,59.70
2019-04-03T19:25:52.422Z,59.40
2019-04-03T19:28:23.817Z,59.90
2019-04-03T19:30:55.020Z,60.30
2019-04-03T19:35:58.650Z,60.20
2019-04-03T19:38:30.807Z,60.60
2019-04-03T19:41:01.962Z,60.50
2019-04-03T19:43:33.242Z,60.80
2019-04-03T19:46:04.782Z,60.70
2019-04-03T19:48:36.128Z,61.10
2019-04-03T19:53:37.448Z,61.40
2019-04-03T19:56:08.430Z,61.40
2019-04-03T19:58:39.466Z,61.60
2019-04-03T20:01:10.473Z,61.20
2019-04-03T20:04:01.250Z,61.90
2019-04-03T20:06:34.930Z,61.50
2019-04-03T20:09:08.910Z,61.80
2019-04-03T20:11:40.051Z,61.60
2019-04-03T20:14:11.971Z,62.00
2019-04-03T20:16:43.064Z,62.50
2019-04-03T20:21:44.355Z,62.40
2019-04-03T20:24:15.502Z,62.30
2019-04-03T20:26:47.106Z,62.20
2019-04-03T20:29:18.526Z,62.20
2019-04-03T20:31:49.650Z,62.30
2019-04-03T20:34:21.493Z,62.20
2019-04-03T20:36:54.838Z,62.70
2019-04-03T20:39:28.762Z,62.40
2019-04-03T20:41:58.403Z,62.50
2019-04-03T20:44:29.570Z,62.70
2019-04-03T20:49:31.025Z,62.40
2019-04-03T20:52:02.171Z,63.20
2019-04-03T20:54:33.334Z,62.60
2019-04-03T20:57:04.462Z,63.70
2019-04-03T20:59:35.606Z,64.60
2019-04-03T21:02:08.262Z,64.40
2019-04-03T21:04:39.533Z,64.10
2019-04-03T21:07:10.677Z,63.50
2019-04-03T21:09:41.757Z,63.40
2019-04-03T21:14:43.190Z,64.10
2019-04-03T21:17:14.529Z,63.70
2019-04-03T21:19:45.689Z,63.60
2019-04-03T21:22:16.947Z,64.00
2019-04-03T21:24:48.469Z,64.00
2019-04-03T21:27:19.538Z,64.00
2019-04-03T21:29:50.674Z,64.20
2019-04-03T21:34:52.871Z,64.10
2019-04-03T21:37:24.042Z,64.30
2019-04-03T21:39:55.134Z,64.40
2019-04-03T21:42:26.982Z,64.90
2019-04-03T21:44:58.570Z,65.90
2019-04-03T21:47:29.687Z,66.80
2019-04-03T21:50:03.704Z,67.90
2019-04-03T21:52:34.083Z,68.60
2019-04-03T21:55:05.709Z,69.90
2019-04-03T21:57:38.315Z,70.50
2019-04-03T22:00:13.133Z,71.30
2019-04-03T22:02:45.364Z,72.10
2019-04-03T22:05:18.167Z,72.50
2019-04-03T22:07:49.338Z,73.30
2019-04-03T22:10:20.454Z,74.00
2019-04-03T22:12:51.751Z,75.20
2019-04-03T22:15:23.237Z,76.00
2019-04-03T22:17:54.570Z,77.20
2019-04-03T22:20:27.743Z,78.30
2019-04-03T22:22:59.267Z,80.20
2019-04-03T22:28:01.110Z,82.00
2019-04-03T22:30:32.641Z,83.00
2019-04-03T22:33:03.918Z,81.00
2019-04-03T22:35:37.130Z,79.70
2019-04-03T22:38:08.455Z,78.70
2019-04-03T22:40:40.794Z,76.80
2019-04-03T22:43:15.317Z,76.80
2019-04-03T22:45:45.366Z,76.20
2019-04-03T22:48:16.545Z,76.70
2019-04-03T22:50:47.758Z,76.40
2019-04-03T22:53:18.950Z,76.40
2019-04-03T22:55:50.497Z,77.30
2019-04-03T22:58:21.744Z,77.60
2019-04-03T23:01:00.589Z,78.40
2019-04-03T23:06:19.349Z,78.50
2019-04-03T23:08:53.751Z,78.30
2019-04-03T23:11:25.655Z,78.60
2019-04-03T23:13:57.301Z,79.60
2019-04-03T23:16:28.401Z,80.20
2019-04-03T23:19:01.033Z,80.70
2019-04-03T23:24:10.035Z,80.40
2019-04-03T23:26:41.206Z,80.50
2019-04-03T23:29:12.748Z,80.80
2019-04-03T23:31:44.987Z,80.80
2019-04-03T23:34:18.707Z,81.00
2019-04-03T23:36:49.459Z,81.00
2019-04-03T23:39:20.618Z,81.40
2019-04-03T23:41:51.739Z,80.60
2019-04-03T23:44:22.905Z,80.80
2019-04-03T23:46:54.426Z,80.60
2019-04-03T23:49:26.022Z,81.20
2019-04-03T23:51:58.954Z,81.20
2019-04-03T23:54:30.209Z,82.00
2019-04-03T23:57:01.362Z,81.80
